sensor_id;sensor_type;location;lat;lon;timestamp;P1;durP1;ratioP1;P2;durP2;ratioP2
6111;SDS011;3086;48.802;9.394;2023-08-17T00:01:24;5.20;;;3.37;;
6111;SDS011;3086;48.802;9.394;2023-08-17T00:04:46;9.77;;;3.20;;
6111;SDS011;3086;48.802;9.394;2023-08-17T00:08:07;4.13;;;3.40;;
6111;SDS011;3086;48.802;9.394;2023-08-17T00:11:29;9.57;;;3.90;;
6111;SDS011;3086;48.802;9.394;2023-08-17T00:14:55;9.57;;;4.23;;
6111;SDS011;3086;48.802;9.394;2023-08-17T00:18:18;5.70;;;3.70;;
6111;SDS011;3086;48.802;9.394;2023-08-17T00:21:39;6.27;;;4.00;;
6111;SDS011;3086;48.802;9.394;2023-08-17T00:25:01;6.20;;;4.10;;
6111;SDS011;3086;48.802;9.394;2023-08-17T00:28:24;5.53;;;3.90;;
6111;SDS011;3086;48.802;9.394;2023-08-17T00:31:46;10.57;;;4.00;;
6111;SDS011;3086;48.802;9.394;2023-08-17T00:35:09;5.67;;;4.20;;
6111;SDS011;3086;48.802;9.394;2023-08-17T00:38:31;4.73;;;3.80;;
6111;SDS011;3086;48.802;9.394;2023-08-17T00:41:52;4.97;;;3.83;;
6111;SDS011;3086;48.802;9.394;2023-08-17T00:45:14;7.47;;;3.47;;
6111;SDS011;3086;48.802;9.394;2023-08-17T00:48:35;8.33;;;3.53;;
6111;SDS011;3086;48.802;9.394;2023-08-17T00:51:58;5.77;;;3.93;;
6111;SDS011;3086;48.802;9.394;2023-08-17T00:55:20;4.13;;;3.73;;
6111;SDS011;3086;48.802;9.394;2023-08-17T00:58:43;6.80;;;3.80;;
6111;SDS011;3086;48.802;9.394;2023-08-17T01:02:05;5.03;;;3.83;;
6111;SDS011;3086;48.802;9.394;2023-08-17T01:05:28;5.23;;;4.27;;
6111;SDS011;3086;48.802;9.394;2023-08-17T01:08:53;5.60;;;4.27;;
6111;SDS011;3086;48.802;9.394;2023-08-17T01:12:17;6.87;;;4.57;;
6111;SDS011;3086;48.802;9.394;2023-08-17T01:15:42;6.77;;;3.73;;
6111;SDS011;3086;48.802;9.394;2023-08-17T01:19:08;5.47;;;4.00;;
6111;SDS011;3086;48.802;9.394;2023-08-17T01:22:30;4.37;;;3.97;;
6111;SDS011;3086;48.802;9.394;2023-08-17T01:25:55;9.53;;;4.50;;
6111;SDS011;3086;48.802;9.394;2023-08-17T01:29:17;6.37;;;4.13;;
6111;SDS011;3086;48.802;9.394;2023-08-17T01:32:39;5.77;;;4.10;;
6111;SDS011;3086;48.802;9.394;2023-08-17T01:36:05;7.30;;;4.10;;
6111;SDS011;3086;48.802;9.394;2023-08-17T01:39:30;7.87;;;4.40;;
6111;SDS011;3086;48.802;9.394;2023-08-17T01:42:55;5.57;;;4.97;;
6111;SDS011;3086;48.802;9.394;2023-08-17T01:46:17;6.80;;;4.43;;
6111;SDS011;3086;48.802;9.394;2023-08-17T01:49:39;8.10;;;4.07;;
6111;SDS011;3086;48.802;9.394;2023-08-17T01:53:01;6.27;;;4.00;;
6111;SDS011;3086;48.802;9.394;2023-08-17T01:56:22;5.77;;;4.03;;
6111;SDS011;3086;48.802;9.394;2023-08-17T01:59:45;8.57;;;4.10;;
6111;SDS011;3086;48.802;9.394;2023-08-17T02:03:07;4.87;;;4.00;;
6111;SDS011;3086;48.802;9.394;2023-08-17T02:06:28;9.33;;;4.30;;
6111;SDS011;3086;48.802;9.394;2023-08-17T02:09:50;7.23;;;4.60;;
6111;SDS011;3086;48.802;9.394;2023-08-17T02:13:11;7.20;;;4.23;;
6111;SDS011;3086;48.802;9.394;2023-08-17T02:16:35;6.07;;;4.30;;
6111;SDS011;3086;48.802;9.394;2023-08-17T02:19:56;5.53;;;4.17;;
6111;SDS011;3086;48.802;9.394;2023-08-17T02:23:17;8.33;;;4.47;;
6111;SDS011;3086;48.802;9.394;2023-08-17T02:26:39;6.10;;;3.90;;
6111;SDS011;3086;48.802;9.394;2023-08-17T02:30:01;5.13;;;4.13;;
6111;SDS011;3086;48.802;9.394;2023-08-17T02:33:24;7.73;;;4.33;;
6111;SDS011;3086;48.802;9.394;2023-08-17T02:36:45;6.07;;;4.63;;
6111;SDS011;3086;48.802;9.394;2023-08-17T02:40:07;4.60;;;4.20;;
6111;SDS011;3086;48.802;9.394;2023-08-17T02:43:29;4.77;;;3.63;;
6111;SDS011;3086;48.802;9.394;2023-08-17T02:46:50;5.13;;;4.10;;
6111;SDS011;3086;48.802;9.394;2023-08-17T02:50:13;8.30;;;4.20;;
6111;SDS011;3086;48.802;9.394;2023-08-17T02:53:35;5.07;;;4.57;;
6111;SDS011;3086;48.802;9.394;2023-08-17T02:56:56;7.53;;;4.30;;
6111;SDS011;3086;48.802;9.394;2023-08-17T03:00:18;5.70;;;4.00;;
6111;SDS011;3086;48.802;9.394;2023-08-17T03:03:39;6.17;;;5.03;;
6111;SDS011;3086;48.802;9.394;2023-08-17T03:07:03;4.77;;;4.20;;
6111;SDS011;3086;48.802;9.394;2023-08-17T03:10:24;9.07;;;4.80;;
6111;SDS011;3086;48.802;9.394;2023-08-17T03:13:46;8.07;;;4.87;;
6111;SDS011;3086;48.802;9.394;2023-08-17T03:17:08;6.27;;;4.30;;
6111;SDS011;3086;48.802;9.394;2023-08-17T03:20:30;6.03;;;4.30;;
6111;SDS011;3086;48.802;9.394;2023-08-17T03:23:52;6.37;;;5.07;;
6111;SDS011;3086;48.802;9.394;2023-08-17T03:27:14;11.53;;;4.90;;
6111;SDS011;3086;48.802;9.394;2023-08-17T03:30:35;8.20;;;4.77;;
6111;SDS011;3086;48.802;9.394;2023-08-17T03:33:57;10.00;;;5.80;;
6111;SDS011;3086;48.802;9.394;2023-08-17T03:37:20;6.87;;;6.13;;
6111;SDS011;3086;48.802;9.394;2023-08-17T03:40:43;7.63;;;6.77;;
6111;SDS011;3086;48.802;9.394;2023-08-17T03:44:04;9.83;;;6.33;;
6111;SDS011;3086;48.802;9.394;2023-08-17T03:47:27;10.40;;;6.63;;
6111;SDS011;3086;48.802;9.394;2023-08-17T03:50:50;9.43;;;7.10;;
6111;SDS011;3086;48.802;9.394;2023-08-17T03:54:12;10.80;;;6.97;;
6111;SDS011;3086;48.802;9.394;2023-08-17T03:57:35;12.10;;;7.27;;
6111;SDS011;3086;48.802;9.394;2023-08-17T04:00:56;12.40;;;7.97;;
6111;SDS011;3086;48.802;9.394;2023-08-17T04:04:18;9.17;;;7.23;;
6111;SDS011;3086;48.802;9.394;2023-08-17T04:07:39;10.47;;;7.73;;
6111;SDS011;3086;48.802;9.394;2023-08-17T04:11:01;11.70;;;7.50;;
6111;SDS011;3086;48.802;9.394;2023-08-17T04:14:24;9.80;;;7.07;;
6111;SDS011;3086;48.802;9.394;2023-08-17T04:17:45;10.80;;;6.80;;
6111;SDS011;3086;48.802;9.394;2023-08-17T04:21:07;11.23;;;7.33;;
6111;SDS011;3086;48.802;9.394;2023-08-17T04:24:28;15.33;;;11.17;;
6111;SDS011;3086;48.802;9.394;2023-08-17T04:27:50;14.57;;;10.13;;
6111;SDS011;3086;48.802;9.394;2023-08-17T04:31:12;15.07;;;11.73;;
6111;SDS011;3086;48.802;9.394;2023-08-17T04:34:34;16.10;;;11.23;;
6111;SDS011;3086;48.802;9.394;2023-08-17T04:37:56;13.13;;;10.27;;
6111;SDS011;3086;48.802;9.394;2023-08-17T04:41:17;13.37;;;10.77;;
6111;SDS011;3086;48.802;9.394;2023-08-17T04:44:39;13.90;;;11.53;;
6111;SDS011;3086;48.802;9.394;2023-08-17T04:48:02;17.07;;;13.97;;
6111;SDS011;3086;48.802;9.394;2023-08-17T04:51:24;22.37;;;14.07;;
6111;SDS011;3086;48.802;9.394;2023-08-17T04:58:13;20.40;;;15.47;;
6111;SDS011;3086;48.802;9.394;2023-08-17T05:01:34;20.30;;;15.23;;
6111;SDS011;3086;48.802;9.394;2023-08-17T05:04:58;18.30;;;15.20;;
6111;SDS011;3086;48.802;9.394;2023-08-17T05:08:19;18.07;;;15.70;;
6111;SDS011;3086;48.802;9.394;2023-08-17T05:11:42;20.23;;;16.20;;
6111;SDS011;3086;48.802;9.394;2023-08-17T05:15:03;20.53;;;16.17;;
6111;SDS011;3086;48.802;9.394;2023-08-17T05:18:25;20.60;;;17.33;;
6111;SDS011;3086;48.802;9.394;2023-08-17T05:21:48;21.40;;;16.70;;
6111;SDS011;3086;48.802;9.394;2023-08-17T05:25:11;20.73;;;16.73;;
6111;SDS011;3086;48.802;9.394;2023-08-17T05:28:32;22.30;;;16.67;;
6111;SDS011;3086;48.802;9.394;2023-08-17T05:31:54;22.30;;;18.13;;
6111;SDS011;3086;48.802;9.394;2023-08-17T05:35:16;24.90;;;19.40;;
6111;SDS011;3086;48.802;9.394;2023-08-17T05:38:39;22.70;;;18.10;;
6111;SDS011;3086;48.802;9.394;2023-08-17T05:42:00;22.00;;;18.10;;
6111;SDS011;3086;48.802;9.394;2023-08-17T05:45:24;21.80;;;16.70;;
6111;SDS011;3086;48.802;9.394;2023-08-17T05:48:45;19.03;;;16.53;;
6111;SDS011;3086;48.802;9.394;2023-08-17T05:52:07;19.87;;;16.17;;
6111;SDS011;3086;48.802;9.394;2023-08-17T05:55:30;16.70;;;14.73;;
6111;SDS011;3086;48.802;9.394;2023-08-17T05:58:51;15.20;;;13.57;;
6111;SDS011;3086;48.802;9.394;2023-08-17T06:02:13;17.03;;;14.83;;
6111;SDS011;3086;48.802;9.394;2023-08-17T06:05:34;16.20;;;14.60;;
6111;SDS011;3086;48.802;9.394;2023-08-17T06:08:56;15.67;;;14.07;;
6111;SDS011;3086;48.802;9.394;2023-08-17T06:12:19;18.23;;;15.47;;
6111;SDS011;3086;48.802;9.394;2023-08-17T06:15:40;15.60;;;13.90;;
6111;SDS011;3086;48.802;9.394;2023-08-17T06:19:02;14.97;;;13.27;;
6111;SDS011;3086;48.802;9.394;2023-08-17T06:22:23;16.90;;;14.53;;
6111;SDS011;3086;48.802;9.394;2023-08-17T06:25:45;14.10;;;12.60;;
6111;SDS011;3086;48.802;9.394;2023-08-17T06:29:08;15.30;;;13.67;;
6111;SDS011;3086;48.802;9.394;2023-08-17T06:32:29;13.67;;;12.33;;
6111;SDS011;3086;48.802;9.394;2023-08-17T06:35:51;12.70;;;11.43;;
6111;SDS011;3086;48.802;9.394;2023-08-17T06:39:12;12.93;;;11.63;;
6111;SDS011;3086;48.802;9.394;2023-08-17T06:42:36;11.97;;;10.73;;
6111;SDS011;3086;48.802;9.394;2023-08-17T06:45:59;12.50;;;11.20;;
6111;SDS011;3086;48.802;9.394;2023-08-17T06:49:21;12.73;;;11.43;;
6111;SDS011;3086;48.802;9.394;2023-08-17T06:52:43;16.27;;;13.43;;
6111;SDS011;3086;48.802;9.394;2023-08-17T06:56:05;16.77;;;14.00;;
6111;SDS011;3086;48.802;9.394;2023-08-17T06:59:26;16.23;;;12.07;;
6111;SDS011;3086;48.802;9.394;2023-08-17T07:02:49;18.10;;;13.53;;
6111;SDS011;3086;48.802;9.394;2023-08-17T07:06:11;14.80;;;13.23;;
6111;SDS011;3086;48.802;9.394;2023-08-17T07:09:33;13.13;;;11.87;;
6111;SDS011;3086;48.802;9.394;2023-08-17T07:12:54;13.27;;;11.83;;
6111;SDS011;3086;48.802;9.394;2023-08-17T07:16:16;12.93;;;11.53;;
6111;SDS011;3086;48.802;9.394;2023-08-17T07:19:39;12.03;;;10.83;;
6111;SDS011;3086;48.802;9.394;2023-08-17T07:23:00;12.57;;;11.17;;
6111;SDS011;3086;48.802;9.394;2023-08-17T07:26:22;12.03;;;10.93;;
6111;SDS011;3086;48.802;9.394;2023-08-17T07:29:44;10.53;;;9.43;;
6111;SDS011;3086;48.802;9.394;2023-08-17T07:33:05;11.43;;;10.23;;
6111;SDS011;3086;48.802;9.394;2023-08-17T07:36:28;10.27;;;9.23;;
6111;SDS011;3086;48.802;9.394;2023-08-17T07:39:50;10.87;;;9.77;;
6111;SDS011;3086;48.802;9.394;2023-08-17T07:43:11;10.37;;;9.37;;
6111;SDS011;3086;48.802;9.394;2023-08-17T07:46:33;9.43;;;8.57;;
6111;SDS011;3086;48.802;9.394;2023-08-17T07:49:54;11.67;;;10.47;;
6111;SDS011;3086;48.802;9.394;2023-08-17T07:53:19;11.50;;;10.30;;
6111;SDS011;3086;48.802;9.394;2023-08-17T07:56:40;12.13;;;10.93;;
6111;SDS011;3086;48.802;9.394;2023-08-17T08:00:02;12.97;;;11.67;;
6111;SDS011;3086;48.802;9.394;2023-08-17T08:03:24;13.60;;;12.00;;
6111;SDS011;3086;48.802;9.394;2023-08-17T08:06:46;13.93;;;12.53;;
6111;SDS011;3086;48.802;9.394;2023-08-17T08:10:09;10.53;;;9.53;;
6111;SDS011;3086;48.802;9.394;2023-08-17T08:13:31;11.30;;;10.20;;
6111;SDS011;3086;48.802;9.394;2023-08-17T08:16:52;8.03;;;7.33;;
6111;SDS011;3086;48.802;9.394;2023-08-17T08:20:14;9.77;;;8.77;;
6111;SDS011;3086;48.802;9.394;2023-08-17T08:23:36;8.93;;;8.13;;
6111;SDS011;3086;48.802;9.394;2023-08-17T08:26:59;9.47;;;8.57;;
6111;SDS011;3086;48.802;9.394;2023-08-17T08:30:20;9.43;;;8.53;;
6111;SDS011;3086;48.802;9.394;2023-08-17T08:33:43;9.00;;;8.20;;
6111;SDS011;3086;48.802;9.394;2023-08-17T08:37:05;9.70;;;8.67;;
6111;SDS011;3086;48.802;9.394;2023-08-17T08:40:27;10.20;;;8.73;;
6111;SDS011;3086;48.802;9.394;2023-08-17T08:43:51;10.17;;;9.27;;
6111;SDS011;3086;48.802;9.394;2023-08-17T08:47:13;9.03;;;8.13;;
6111;SDS011;3086;48.802;9.394;2023-08-17T08:50:35;9.07;;;8.27;;
6111;SDS011;3086;48.802;9.394;2023-08-17T08:54:00;10.83;;;8.87;;
6111;SDS011;3086;48.802;9.394;2023-08-17T08:57:23;8.60;;;7.50;;
6111;SDS011;3086;48.802;9.394;2023-08-17T09:00:46;8.40;;;7.60;;
6111;SDS011;3086;48.802;9.394;2023-08-17T09:04:08;8.07;;;7.33;;
6111;SDS011;3086;48.802;9.394;2023-08-17T09:07:30;9.27;;;8.33;;
6111;SDS011;3086;48.802;9.394;2023-08-17T09:10:51;8.73;;;7.60;;
6111;SDS011;3086;48.802;9.394;2023-08-17T09:14:13;8.00;;;6.77;;
6111;SDS011;3086;48.802;9.394;2023-08-17T09:17:36;10.40;;;9.17;;
6111;SDS011;3086;48.802;9.394;2023-08-17T09:21:00;9.03;;;8.23;;
6111;SDS011;3086;48.802;9.394;2023-08-17T09:24:22;8.57;;;7.40;;
6111;SDS011;3086;48.802;9.394;2023-08-17T09:27:44;8.43;;;7.27;;
6111;SDS011;3086;48.802;9.394;2023-08-17T09:31:05;8.17;;;7.37;;
6111;SDS011;3086;48.802;9.394;2023-08-17T09:34:29;8.20;;;7.40;;
6111;SDS011;3086;48.802;9.394;2023-08-17T09:37:52;7.93;;;7.10;;
6111;SDS011;3086;48.802;9.394;2023-08-17T09:41:13;8.27;;;6.60;;
6111;SDS011;3086;48.802;9.394;2023-08-17T09:44:45;8.00;;;6.80;;
6111;SDS011;3086;48.802;9.394;2023-08-17T09:48:07;8.10;;;7.17;;
6111;SDS011;3086;48.802;9.394;2023-08-17T09:51:30;8.30;;;6.97;;
6111;SDS011;3086;48.802;9.394;2023-08-17T09:54:52;8.60;;;7.40;;
6111;SDS011;3086;48.802;9.394;2023-08-17T09:58:14;9.17;;;7.00;;
6111;SDS011;3086;48.802;9.394;2023-08-17T10:01:36;8.37;;;7.57;;
6111;SDS011;3086;48.802;9.394;2023-08-17T10:04:57;8.80;;;8.00;;
6111;SDS011;3086;48.802;9.394;2023-08-17T10:08:24;7.33;;;6.63;;
6111;SDS011;3086;48.802;9.394;2023-08-17T10:11:46;8.07;;;6.00;;
6111;SDS011;3086;48.802;9.394;2023-08-17T10:15:10;7.00;;;6.40;;
6111;SDS011;3086;48.802;9.394;2023-08-17T10:18:35;5.77;;;5.27;;
6111;SDS011;3086;48.802;9.394;2023-08-17T10:22:00;7.77;;;6.27;;
6111;SDS011;3086;48.802;9.394;2023-08-17T10:25:27;5.40;;;5.00;;
6111;SDS011;3086;48.802;9.394;2023-08-17T10:28:48;17.30;;;14.37;;
6111;SDS011;3086;48.802;9.394;2023-08-17T10:32:11;37.07;;;30.80;;
6111;SDS011;3086;48.802;9.394;2023-08-17T10:35:38;24.37;;;11.40;;
6111;SDS011;3086;48.802;9.394;2023-08-17T10:39:17;20.13;;;13.77;;
6111;SDS011;3086;48.802;9.394;2023-08-17T10:42:42;6.90;;;6.30;;
6111;SDS011;3086;48.802;9.394;2023-08-17T10:46:15;7.17;;;5.70;;
6111;SDS011;3086;48.802;9.394;2023-08-17T10:49:37;8.87;;;6.37;;
6111;SDS011;3086;48.802;9.394;2023-08-17T10:53:03;6.40;;;5.47;;
6111;SDS011;3086;48.802;9.394;2023-08-17T10:56:26;6.67;;;6.00;;
6111;SDS011;3086;48.802;9.394;2023-08-17T11:00:05;7.53;;;6.23;;
6111;SDS011;3086;48.802;9.394;2023-08-17T11:03:41;8.60;;;7.27;;
6111;SDS011;3086;48.802;9.394;2023-08-17T11:07:04;13.23;;;8.53;;
6111;SDS011;3086;48.802;9.394;2023-08-17T11:10:36;7.10;;;5.70;;
6111;SDS011;3086;48.802;9.394;2023-08-17T11:13:58;6.03;;;5.43;;
6111;SDS011;3086;48.802;9.394;2023-08-17T11:17:21;6.93;;;5.87;;
6111;SDS011;3086;48.802;9.394;2023-08-17T11:20:43;6.10;;;5.60;;
6111;SDS011;3086;48.802;9.394;2023-08-17T11:24:05;5.07;;;4.67;;
6111;SDS011;3086;48.802;9.394;2023-08-17T11:27:30;6.20;;;5.60;;
6111;SDS011;3086;48.802;9.394;2023-08-17T11:30:57;6.33;;;5.70;;
6111;SDS011;3086;48.802;9.394;2023-08-17T11:34:20;7.83;;;5.90;;
6111;SDS011;3086;48.802;9.394;2023-08-17T11:37:42;7.80;;;6.50;;
6111;SDS011;3086;48.802;9.394;2023-08-17T11:41:04;6.57;;;5.97;;
6111;SDS011;3086;48.802;9.394;2023-08-17T11:44:26;6.33;;;5.73;;
6111;SDS011;3086;48.802;9.394;2023-08-17T11:47:48;6.00;;;5.40;;
6111;SDS011;3086;48.802;9.394;2023-08-17T11:51:11;5.77;;;5.27;;
6111;SDS011;3086;48.802;9.394;2023-08-17T11:54:33;7.20;;;5.97;;
6111;SDS011;3086;48.802;9.394;2023-08-17T11:57:54;7.70;;;5.73;;
6111;SDS011;3086;48.802;9.394;2023-08-17T12:01:16;6.27;;;5.67;;
6111;SDS011;3086;48.802;9.394;2023-08-17T12:04:37;8.03;;;5.67;;
6111;SDS011;3086;48.802;9.394;2023-08-17T12:08:00;6.37;;;4.87;;
6111;SDS011;3086;48.802;9.394;2023-08-17T12:11:23;5.87;;;5.30;;
6111;SDS011;3086;48.802;9.394;2023-08-17T12:14:46;5.83;;;5.00;;
6111;SDS011;3086;48.802;9.394;2023-08-17T12:18:08;5.73;;;4.83;;
6111;SDS011;3086;48.802;9.394;2023-08-17T12:21:29;6.63;;;5.33;;
6111;SDS011;3086;48.802;9.394;2023-08-17T12:24:53;5.30;;;4.90;;
6111;SDS011;3086;48.802;9.394;2023-08-17T12:28:15;6.63;;;6.03;;
6111;SDS011;3086;48.802;9.394;2023-08-17T12:31:37;6.70;;;6.03;;
6111;SDS011;3086;48.802;9.394;2023-08-17T12:34:59;7.53;;;6.47;;
6111;SDS011;3086;48.802;9.394;2023-08-17T12:38:21;8.93;;;6.50;;
6111;SDS011;3086;48.802;9.394;2023-08-17T12:41:44;7.23;;;6.33;;
6111;SDS011;3086;48.802;9.394;2023-08-17T12:45:06;9.57;;;7.03;;
6111;SDS011;3086;48.802;9.394;2023-08-17T12:48:28;7.90;;;7.10;;
6111;SDS011;3086;48.802;9.394;2023-08-17T12:51:50;7.30;;;6.50;;
6111;SDS011;3086;48.802;9.394;2023-08-17T12:55:12;8.03;;;7.07;;
6111;SDS011;3086;48.802;9.394;2023-08-17T12:58:34;7.90;;;7.10;;
6111;SDS011;3086;48.802;9.394;2023-08-17T13:01:56;10.57;;;6.90;;
6111;SDS011;3086;48.802;9.394;2023-08-17T13:05:18;8.77;;;7.33;;
6111;SDS011;3086;48.802;9.394;2023-08-17T13:08:39;9.10;;;7.40;;
6111;SDS011;3086;48.802;9.394;2023-08-17T13:12:01;8.40;;;7.57;;
6111;SDS011;3086;48.802;9.394;2023-08-17T13:15:24;9.07;;;7.77;;
6111;SDS011;3086;48.802;9.394;2023-08-17T13:18:50;8.63;;;6.90;;
6111;SDS011;3086;48.802;9.394;2023-08-17T13:22:14;7.53;;;6.70;;
6111;SDS011;3086;48.802;9.394;2023-08-17T13:25:35;8.80;;;7.10;;
6111;SDS011;3086;48.802;9.394;2023-08-17T13:28:57;7.80;;;7.00;;
6111;SDS011;3086;48.802;9.394;2023-08-17T13:32:20;7.27;;;6.57;;
6111;SDS011;3086;48.802;9.394;2023-08-17T13:35:41;7.20;;;6.40;;
6111;SDS011;3086;48.802;9.394;2023-08-17T13:39:03;7.80;;;6.30;;
6111;SDS011;3086;48.802;9.394;2023-08-17T13:42:26;7.73;;;6.07;;
6111;SDS011;3086;48.802;9.394;2023-08-17T13:45:47;7.93;;;5.57;;
6111;SDS011;3086;48.802;9.394;2023-08-17T13:49:10;5.90;;;5.20;;
6111;SDS011;3086;48.802;9.394;2023-08-17T13:52:32;5.23;;;4.83;;
6111;SDS011;3086;48.802;9.394;2023-08-17T13:55:53;9.47;;;5.20;;
6111;SDS011;3086;48.802;9.394;2023-08-17T13:59:15;5.03;;;4.53;;
6111;SDS011;3086;48.802;9.394;2023-08-17T14:02:36;6.30;;;5.70;;
6111;SDS011;3086;48.802;9.394;2023-08-17T14:05:59;5.37;;;4.90;;
6111;SDS011;3086;48.802;9.394;2023-08-17T14:09:21;6.43;;;5.83;;
6111;SDS011;3086;48.802;9.394;2023-08-17T14:12:42;8.30;;;6.13;;
6111;SDS011;3086;48.802;9.394;2023-08-17T14:16:04;6.77;;;6.17;;
6111;SDS011;3086;48.802;9.394;2023-08-17T14:19:26;9.00;;;6.53;;
6111;SDS011;3086;48.802;9.394;2023-08-17T14:22:48;7.47;;;6.63;;
6111;SDS011;3086;48.802;9.394;2023-08-17T14:26:10;7.93;;;6.23;;
6111;SDS011;3086;48.802;9.394;2023-08-17T14:29:31;8.23;;;6.63;;
6111;SDS011;3086;48.802;9.394;2023-08-17T14:32:56;7.63;;;6.93;;
6111;SDS011;3086;48.802;9.394;2023-08-17T14:36:17;8.07;;;7.27;;
6111;SDS011;3086;48.802;9.394;2023-08-17T14:39:40;7.47;;;6.70;;
6111;SDS011;3086;48.802;9.394;2023-08-17T14:43:02;7.87;;;7.17;;
6111;SDS011;3086;48.802;9.394;2023-08-17T14:46:24;9.70;;;7.03;;
6111;SDS011;3086;48.802;9.394;2023-08-17T14:49:45;8.70;;;7.57;;
6111;SDS011;3086;48.802;9.394;2023-08-17T14:53:08;8.97;;;7.63;;
6111;SDS011;3086;48.802;9.394;2023-08-17T14:56:30;8.10;;;7.30;;
6111;SDS011;3086;48.802;9.394;2023-08-17T14:59:52;8.53;;;7.13;;
6111;SDS011;3086;48.802;9.394;2023-08-17T15:03:14;7.80;;;7.00;;
6111;SDS011;3086;48.802;9.394;2023-08-17T15:06:37;8.50;;;7.10;;
6111;SDS011;3086;48.802;9.394;2023-08-17T15:09:59;7.60;;;6.80;;
6111;SDS011;3086;48.802;9.394;2023-08-17T15:13:22;8.10;;;7.30;;
6111;SDS011;3086;48.802;9.394;2023-08-17T15:16:43;7.67;;;6.97;;
6111;SDS011;3086;48.802;9.394;2023-08-17T15:20:05;6.63;;;6.00;;
6111;SDS011;3086;48.802;9.394;2023-08-17T15:23:27;10.07;;;6.70;;
6111;SDS011;3086;48.802;9.394;2023-08-17T15:26:49;8.53;;;7.70;;
6111;SDS011;3086;48.802;9.394;2023-08-17T15:30:12;7.70;;;7.00;;
6111;SDS011;3086;48.802;9.394;2023-08-17T15:33:33;9.87;;;7.47;;
6111;SDS011;3086;48.802;9.394;2023-08-17T15:36:55;8.97;;;8.03;;
6111;SDS011;3086;48.802;9.394;2023-08-17T15:40:17;9.30;;;7.67;;
6111;SDS011;3086;48.802;9.394;2023-08-17T15:43:38;8.83;;;7.80;;
6111;SDS011;3086;48.802;9.394;2023-08-17T15:47:01;7.80;;;7.00;;
6111;SDS011;3086;48.802;9.394;2023-08-17T15:50:23;7.77;;;7.00;;
6111;SDS011;3086;48.802;9.394;2023-08-17T15:53:44;9.20;;;8.40;;
6111;SDS011;3086;48.802;9.394;2023-08-17T15:57:06;8.97;;;7.70;;
6111;SDS011;3086;48.802;9.394;2023-08-17T16:00:27;8.47;;;7.67;;
6111;SDS011;3086;48.802;9.394;2023-08-17T16:03:50;8.60;;;7.80;;
6111;SDS011;3086;48.802;9.394;2023-08-17T16:07:12;9.10;;;8.30;;
6111;SDS011;3086;48.802;9.394;2023-08-17T16:10:33;9.17;;;8.13;;
6111;SDS011;3086;48.802;9.394;2023-08-17T16:13:55;9.03;;;8.17;;
6111;SDS011;3086;48.802;9.394;2023-08-17T16:17:17;9.80;;;8.00;;
6111;SDS011;3086;48.802;9.394;2023-08-17T16:20:40;9.60;;;8.57;;
6111;SDS011;3086;48.802;9.394;2023-08-17T16:24:01;9.03;;;8.13;;
6111;SDS011;3086;48.802;9.394;2023-08-17T16:27:23;8.30;;;7.60;;
6111;SDS011;3086;48.802;9.394;2023-08-17T16:30:44;8.53;;;7.77;;
6111;SDS011;3086;48.802;9.394;2023-08-17T16:34:06;9.10;;;8.20;;
6111;SDS011;3086;48.802;9.394;2023-08-17T16:37:29;9.10;;;7.70;;
6111;SDS011;3086;48.802;9.394;2023-08-17T16:40:50;8.83;;;7.93;;
6111;SDS011;3086;48.802;9.394;2023-08-17T16:44:12;8.07;;;7.37;;
6111;SDS011;3086;48.802;9.394;2023-08-17T16:47:34;7.63;;;6.83;;
6111;SDS011;3086;48.802;9.394;2023-08-17T16:50:56;8.80;;;7.53;;
6111;SDS011;3086;48.802;9.394;2023-08-17T16:54:20;8.33;;;7.57;;
6111;SDS011;3086;48.802;9.394;2023-08-17T16:57:41;8.27;;;7.57;;
6111;SDS011;3086;48.802;9.394;2023-08-17T17:01:03;8.90;;;8.00;;
6111;SDS011;3086;48.802;9.394;2023-08-17T17:04:24;8.10;;;7.30;;
6111;SDS011;3086;48.802;9.394;2023-08-17T17:07:46;8.00;;;7.30;;
6111;SDS011;3086;48.802;9.394;2023-08-17T17:11:09;10.10;;;7.77;;
6111;SDS011;3086;48.802;9.394;2023-08-17T17:14:30;7.97;;;6.63;;
6111;SDS011;3086;48.802;9.394;2023-08-17T17:17:52;9.97;;;7.80;;
6111;SDS011;3086;48.802;9.394;2023-08-17T17:21:13;7.37;;;6.77;;
6111;SDS011;3086;48.802;9.394;2023-08-17T17:24:35;8.80;;;6.53;;
6111;SDS011;3086;48.802;9.394;2023-08-17T17:27:58;7.73;;;6.93;;
6111;SDS011;3086;48.802;9.394;2023-08-17T17:31:19;9.23;;;6.77;;
6111;SDS011;3086;48.802;9.394;2023-08-17T17:34:41;8.40;;;7.17;;
6111;SDS011;3086;48.802;9.394;2023-08-17T17:38:02;7.80;;;7.07;;
6111;SDS011;3086;48.802;9.394;2023-08-17T17:41:24;8.50;;;7.20;;
6111;SDS011;3086;48.802;9.394;2023-08-17T17:44:47;9.13;;;7.00;;
6111;SDS011;3086;48.802;9.394;2023-08-17T17:48:08;7.97;;;7.23;;
6111;SDS011;3086;48.802;9.394;2023-08-17T17:51:32;7.87;;;7.07;;
6111;SDS011;3086;48.802;9.394;2023-08-17T17:54:54;8.93;;;7.37;;
6111;SDS011;3086;48.802;9.394;2023-08-17T17:58:15;8.47;;;7.50;;
6111;SDS011;3086;48.802;9.394;2023-08-17T18:01:38;9.27;;;8.27;;
6111;SDS011;3086;48.802;9.394;2023-08-17T18:05:00;9.60;;;7.47;;
6111;SDS011;3086;48.802;9.394;2023-08-17T18:08:21;8.50;;;7.67;;
6111;SDS011;3086;48.802;9.394;2023-08-17T18:11:43;8.23;;;7.50;;
6111;SDS011;3086;48.802;9.394;2023-08-17T18:15:05;7.93;;;7.23;;
6111;SDS011;3086;48.802;9.394;2023-08-17T18:18:28;8.80;;;7.90;;
6111;SDS011;3086;48.802;9.394;2023-08-17T18:21:52;8.00;;;7.30;;
6111;SDS011;3086;48.802;9.394;2023-08-17T18:25:14;8.93;;;8.00;;
6111;SDS011;3086;48.802;9.394;2023-08-17T18:28:36;8.20;;;7.50;;
6111;SDS011;3086;48.802;9.394;2023-08-17T18:31:58;8.67;;;7.80;;
6111;SDS011;3086;48.802;9.394;2023-08-17T18:35:20;10.57;;;7.50;;
6111;SDS011;3086;48.802;9.394;2023-08-17T18:38:42;8.07;;;7.27;;
6111;SDS011;3086;48.802;9.394;2023-08-17T18:42:04;9.23;;;8.27;;
6111;SDS011;3086;48.802;9.394;2023-08-17T18:45:25;8.73;;;8.00;;
6111;SDS011;3086;48.802;9.394;2023-08-17T18:48:47;8.67;;;7.90;;
6111;SDS011;3086;48.802;9.394;2023-08-17T18:52:10;9.97;;;7.90;;
6111;SDS011;3086;48.802;9.394;2023-08-17T18:55:32;8.47;;;7.70;;
6111;SDS011;3086;48.802;9.394;2023-08-17T18:58:53;9.77;;;8.83;;
6111;SDS011;3086;48.802;9.394;2023-08-17T19:02:17;8.53;;;7.60;;
6111;SDS011;3086;48.802;9.394;2023-08-17T19:05:38;10.87;;;9.23;;
6111;SDS011;3086;48.802;9.394;2023-08-17T19:09:01;12.07;;;9.17;;
6111;SDS011;3086;48.802;9.394;2023-08-17T19:12:23;9.53;;;8.20;;
6111;SDS011;3086;48.802;9.394;2023-08-17T19:15:45;9.70;;;8.33;;
6111;SDS011;3086;48.802;9.394;2023-08-17T19:19:06;9.53;;;8.60;;
6111;SDS011;3086;48.802;9.394;2023-08-17T19:22:28;9.47;;;8.47;;
6111;SDS011;3086;48.802;9.394;2023-08-17T19:25:50;9.47;;;8.10;;
6111;SDS011;3086;48.802;9.394;2023-08-17T19:29:12;9.73;;;8.70;;
6111;SDS011;3086;48.802;9.394;2023-08-17T19:32:34;10.57;;;9.03;;
6111;SDS011;3086;48.802;9.394;2023-08-17T19:35:56;9.47;;;8.57;;
6111;SDS011;3086;48.802;9.394;2023-08-17T19:39:18;10.53;;;9.17;;
6111;SDS011;3086;48.802;9.394;2023-08-17T19:42:42;10.17;;;9.17;;
6111;SDS011;3086;48.802;9.394;2023-08-17T19:46:04;10.07;;;9.17;;
6111;SDS011;3086;48.802;9.394;2023-08-17T19:49:25;10.90;;;9.90;;
6111;SDS011;3086;48.802;9.394;2023-08-17T19:52:47;10.50;;;9.40;;
6111;SDS011;3086;48.802;9.394;2023-08-17T19:56:08;9.43;;;8.43;;
6111;SDS011;3086;48.802;9.394;2023-08-17T19:59:31;9.90;;;9.00;;
6111;SDS011;3086;48.802;9.394;2023-08-17T20:02:53;9.87;;;8.97;;
6111;SDS011;3086;48.802;9.394;2023-08-17T20:06:15;10.20;;;8.83;;
6111;SDS011;3086;48.802;9.394;2023-08-17T20:09:37;12.87;;;9.10;;
6111;SDS011;3086;48.802;9.394;2023-08-17T20:12:58;10.17;;;9.27;;
6111;SDS011;3086;48.802;9.394;2023-08-17T20:16:21;9.97;;;8.97;;
6111;SDS011;3086;48.802;9.394;2023-08-17T20:19:43;9.13;;;8.33;;
6111;SDS011;3086;48.802;9.394;2023-08-17T20:23:05;9.43;;;7.93;;
6111;SDS011;3086;48.802;9.394;2023-08-17T20:26:26;8.40;;;7.50;;
6111;SDS011;3086;48.802;9.394;2023-08-17T20:29:48;9.07;;;7.80;;
6111;SDS011;3086;48.802;9.394;2023-08-17T20:33:11;12.00;;;8.07;;
6111;SDS011;3086;48.802;9.394;2023-08-17T20:36:32;8.93;;;7.27;;
6111;SDS011;3086;48.802;9.394;2023-08-17T20:39:54;8.33;;;7.00;;
6111;SDS011;3086;48.802;9.394;2023-08-17T20:43:16;7.90;;;7.10;;
6111;SDS011;3086;48.802;9.394;2023-08-17T20:46:37;8.97;;;6.47;;
6111;SDS011;3086;48.802;9.394;2023-08-17T20:50:00;7.83;;;6.57;;
6111;SDS011;3086;48.802;9.394;2023-08-17T20:53:22;8.30;;;7.47;;